createdAt,value
2019-01-04T00:00:32.137Z,2.10
2019-01-04T00:07:16.210Z,2.10
2019-01-04T00:14:00.289Z,2.00
2019-01-04T00:20:44.338Z,2.00
2019-01-04T00:27:28.402Z,1.90
2019-01-04T00:34:12.522Z,2.00
2019-01-04T00:40:56.674Z,2.00
2019-01-04T00:47:40.821Z,2.10
2019-01-04T00:54:28.494Z,2.20
2019-01-04T01:01:41.270Z,2.10
2019-01-04T01:10:39.641Z,2.10
2019-01-04T01:25:13.497Z,2.00
2019-01-04T01:32:07.386Z,2.00
2019-01-04T01:39:09.341Z,2.10
2019-01-04T01:46:05.093Z,2.20
2019-01-04T01:52:50.009Z,2.20
2019-01-04T01:59:34.937Z,2.10
2019-01-04T02:06:18.877Z,2.10
2019-01-04T02:13:02.826Z,1.90
2019-01-04T02:19:46.765Z,1.90
2019-01-04T02:26:30.710Z,1.80
2019-01-04T02:33:14.647Z,1.70
2019-01-04T02:39:58.591Z,1.60
2019-01-04T02:46:42.614Z,1.50
2019-01-04T02:53:26.553Z,1.50
2019-01-04T03:00:11.499Z,1.40
2019-01-04T03:06:55.444Z,1.40
2019-01-04T03:13:39.369Z,1.50
2019-01-04T03:20:23.302Z,1.50
2019-01-04T03:27:07.238Z,1.40
2019-01-04T03:33:51.196Z,1.40
2019-01-04T03:40:35.213Z,1.40
2019-01-04T03:47:19.158Z,1.40
2019-01-04T03:54:03.095Z,1.40
2019-01-04T04:00:48.001Z,1.40
2019-01-04T04:07:31.942Z,1.40
2019-01-04T04:14:15.890Z,1.40
2019-01-04T04:20:59.910Z,1.40
2019-01-04T04:27:43.852Z,1.50
2019-01-04T04:34:27.786Z,1.50
2019-01-04T04:41:11.733Z,1.40
2019-01-04T04:47:55.677Z,1.40
2019-01-04T04:54:39.617Z,1.40
2019-01-04T05:01:25.199Z,1.40
2019-01-04T05:08:09.139Z,1.40
2019-01-04T05:14:53.073Z,1.50
2019-01-04T05:21:37.013Z,1.50
2019-01-04T05:28:20.946Z,1.60
2019-01-04T05:35:04.913Z,1.60
2019-01-04T05:41:48.962Z,1.50
2019-01-04T05:48:32.900Z,1.50
2019-01-04T05:55:16.868Z,1.50
2019-01-04T06:02:03.849Z,1.50
2019-01-04T06:08:47.809Z,1.50
2019-01-04T06:15:31.752Z,1.50
2019-01-04T06:22:15.761Z,1.50
2019-01-04T06:29:00.226Z,1.40
2019-01-04T06:35:44.296Z,1.20
2019-01-04T06:42:28.237Z,1.20
2019-01-04T06:49:12.513Z,1.10
2019-01-04T06:56:01.718Z,1.10
2019-01-04T07:02:46.580Z,1.00
2019-01-04T07:09:30.524Z,1.10
2019-01-04T07:16:14.464Z,1.10
2019-01-04T07:22:58.429Z,1.10
2019-01-04T07:29:42.389Z,1.30
2019-01-04T07:36:26.339Z,1.50
2019-01-04T07:43:16.318Z,1.30
2019-01-04T07:49:54.225Z,1.40
2019-01-04T07:56:38.274Z,1.60
2019-01-04T08:03:25.794Z,1.90
2019-01-04T08:10:09.845Z,2.00
2019-01-04T08:16:53.789Z,2.20
2019-01-04T08:23:37.726Z,2.40
2019-01-04T08:30:21.856Z,2.60
2019-01-04T08:37:05.801Z,3.10
2019-01-04T08:43:49.744Z,3.60
2019-01-04T08:50:33.689Z,3.90
2019-01-04T08:57:17.633Z,3.70
2019-01-04T09:04:01.637Z,3.50
2019-01-04T09:10:45.590Z,3.50
2019-01-04T09:17:29.537Z,3.90
2019-01-04T09:24:13.498Z,4.40
2019-01-04T09:30:57.509Z,4.60
2019-01-04T09:37:41.462Z,5.30
2019-01-04T09:44:25.400Z,6.00
2019-01-04T09:51:09.677Z,6.20
2019-01-04T09:57:53.744Z,6.00
2019-01-04T10:04:37.678Z,6.30
2019-01-04T10:11:21.653Z,6.20
2019-01-04T10:18:05.806Z,6.20
2019-01-04T10:24:49.773Z,6.20
2019-01-04T10:31:33.759Z,6.00
2019-01-04T10:38:17.809Z,5.80
2019-01-04T10:45:01.824Z,5.80
2019-01-04T10:51:47.743Z,5.10
2019-01-04T10:58:31.681Z,5.00
2019-01-04T11:59:30.343Z,3.80
2019-01-04T12:06:14.313Z,4.40
2019-01-04T12:12:58.485Z,4.40
2019-01-04T12:19:42.425Z,4.10
2019-01-04T12:26:26.377Z,3.80
2019-01-04T12:33:10.326Z,3.90
2019-01-04T12:39:54.269Z,4.10
2019-01-04T12:46:38.214Z,4.00
2019-01-04T12:53:22.148Z,3.90
2019-01-04T13:00:07.532Z,4.00
2019-01-04T13:06:51.494Z,4.20
2019-01-04T13:13:35.446Z,4.50
2019-01-04T13:20:19.394Z,4.80
2019-01-04T13:27:03.338Z,4.70
2019-01-04T13:33:47.297Z,4.50
2019-01-04T13:40:31.238Z,4.50
2019-01-04T13:47:15.217Z,4.50
2019-01-04T13:53:59.168Z,4.70
2019-01-04T14:00:43.141Z,4.80
2019-01-04T14:07:27.222Z,4.70
2019-01-04T14:14:11.181Z,4.70
2019-01-04T14:20:55.125Z,4.60
2019-01-04T14:27:39.125Z,4.40
2019-01-04T14:34:23.105Z,4.40
2019-01-04T14:41:07.073Z,4.30
2019-01-04T14:47:51.009Z,4.20
2019-01-04T14:54:34.985Z,4.10
2019-01-04T15:01:18.959Z,4.00
2019-01-04T15:08:02.941Z,3.90
2019-01-04T15:14:46.924Z,3.80
2019-01-04T15:21:30.832Z,3.50
2019-01-04T15:28:14.772Z,3.30
2019-01-04T15:34:58.794Z,3.00
2019-01-04T15:41:42.747Z,2.90
2019-01-04T15:48:26.686Z,2.90
2019-01-04T15:55:10.717Z,2.90
2019-01-04T16:01:54.674Z,2.90
2019-01-04T16:08:38.668Z,2.80
2019-01-04T16:15:22.628Z,2.80
2019-01-04T16:22:06.577Z,2.80
2019-01-04T16:28:50.525Z,2.80
2019-01-04T16:35:34.504Z,2.70
2019-01-04T16:42:18.461Z,2.70
2019-01-04T16:49:02.410Z,2.80
2019-01-04T16:55:46.353Z,2.90
2019-01-04T17:02:30.307Z,3.00
2019-01-04T17:09:14.274Z,3.10
2019-01-04T17:15:58.258Z,3.20
2019-01-04T17:22:42.213Z,3.20
2019-01-04T17:29:26.190Z,3.30
2019-01-04T17:36:14.105Z,3.30
2019-01-04T17:42:58.402Z,3.30
2019-01-04T17:49:42.845Z,3.30
2019-01-04T17:56:26.881Z,3.40
2019-01-04T18:03:10.845Z,3.30
2019-01-04T18:09:54.941Z,3.20
2019-01-04T18:16:38.976Z,3.10
2019-01-04T18:23:22.937Z,3.20
2019-01-04T18:30:08.777Z,3.20
2019-01-04T18:36:52.842Z,3.20
2019-01-04T18:43:36.872Z,3.20
2019-01-04T18:50:23.046Z,3.30
2019-01-04T18:57:07.018Z,3.30
2019-01-04T19:03:51.027Z,3.30
2019-01-04T19:10:34.981Z,3.30
2019-01-04T19:17:18.922Z,3.30
2019-01-04T19:24:03.331Z,3.30
2019-01-04T19:30:47.313Z,3.30
2019-01-04T19:37:31.334Z,3.30
2019-01-04T19:44:15.313Z,3.30
2019-01-04T19:50:59.381Z,3.30
2019-01-04T19:57:43.436Z,3.30
2019-01-04T20:04:27.505Z,3.40
2019-01-04T20:12:27.299Z,3.40
2019-01-04T20:19:48.909Z,3.40
2019-01-04T20:26:57.249Z,3.40
2019-01-04T20:33:53.453Z,3.30
2019-01-04T20:40:41.797Z,3.30
2019-01-04T20:47:31.857Z,3.40
2019-01-04T20:54:21.281Z,3.40
2019-01-04T21:03:14.505Z,3.40
2019-01-04T21:12:04.829Z,3.40
2019-01-04T21:18:53.997Z,3.30
2019-01-04T21:25:45.965Z,3.30
2019-01-04T21:32:43.995Z,3.20
2019-01-04T21:41:34.236Z,3.20
2019-01-04T21:48:23.538Z,3.20
2019-01-04T21:55:14.765Z,3.20
2019-01-04T22:03:01.814Z,3.30
2019-01-04T22:11:56.493Z,3.20
2019-01-04T22:20:49.109Z,3.20
2019-01-04T22:29:42.542Z,3.20
2019-01-04T22:36:31.646Z,3.20
2019-01-04T22:43:55.174Z,3.20
2019-01-04T22:50:44.533Z,3.30
2019-01-04T22:57:37.736Z,3.30
2019-01-04T23:04:26.958Z,3.40
2019-01-04T23:11:16.241Z,3.40
2019-01-04T23:19:03.989Z,3.30
2019-01-04T23:26:00.106Z,3.30
2019-01-04T23:32:48.516Z,3.30
2019-01-04T23:39:43.709Z,3.30
2019-01-04T23:46:34.765Z,3.30
2019-01-04T23:55:26.111Z,3.30
